Guymon, OK (73942)

5:29 AM CDT on September 16, 2014 (GMT -0500)
Guymon Municipal | Change Station
CLOSE
Current Station
Airport
Location: Guymon,
Elevation: 3123 ft
Nearby Weather Stations

Elev 3123 ft 36.68 °N, 101.51 °W | Updated 36 minutes ago

Overcast
Overcast
61 °F
Feels Like 61 °F
N
4
Wind Variable Wind from South

Today
High -- | Low -- °F
--% Chance of Precip.
Yesterday
High -- | Low -- °F
Precip. -- in
7:29 AM 7:51 PM
Waning Gibbous, 47% visible
Pressure 30.16 in
Visibility 10.0 miles
Clouds Overcast 900 ft
Dew Point 58 °F
Humidity 90%
Rainfall 0.00 in
Snow Depth Not available.
UV 0 out of 12
Pollen 9.50 out of 12
Air Quality Not available.
Flu Activity Not available.
METAR KGUY 160953Z AUTO 18003KT 10SM OVC009 16/14 A3024 RMK AO2 SLP212 T01610144 $

More Conditions Fewer Conditions

Pressure 30.16 in
Visibility 10.0 miles
Clouds Overcast 900 ft
Dew Point 58 °F
Humidity 90%
Rainfall 0.00 in
Snow Depth Not available.
UV 0 out of 12
Pollen 9.50 out of 12
Air Quality Not available.
Flu Activity Not available.
METAR KGUY 160953Z AUTO 18003KT 10SM OVC009 16/14 A3024 RMK AO2 SLP212 T01610144 $

More Conditions Fewer Conditions

10-Day Weather Forecast

Almanac

Astronomy

Sep. 16, 2014 Rise Set
Actual Time 7:29 AM CDT 7:51 PM CDT
Civil Twilight 7:03 AM CDT 8:17 PM CDT
Nautical Twilight 6:32 AM CDT 8:48 PM CDT
Astronomical Twilight 6:01 AM CDT 9:18 PM CDT
Moon 12:47 AM CDT 3:10 PM CDT
Length of Visible Light 13h 14m
Length of Day
12h 22m
Tomorrow will be 2m 18s shorter.
Waning Gibbous, 47% of the Moon is Illuminated
Today
Waning Gibbous
Sep 24
New
Oct 1
First Quarter
Oct 8
Full
Oct 15
Last Quarter

Today's Extremes

State Highs State Lows

Community

WunderPhotos

Upload Photos

1,753,718 photos uploaded!

WunderBlogs® & News

Nearby

Snow Depth

Station Depth Elevation
No new snow has been reported.

Earthquake Activity

City Distance Mag. Time & Date
No recent earthquake activity has been reported nearby.
Minimum magnitude displayed is 2.5.

Coastal Water Temperatures

Place Temperature
No Stations Reporting

Nearby Weather Stations